Main page
METAR-TAF:

METAR-TAF

Airports :

Inverness Airport

Inverness, Scotland

latitude: 57-32N, longitude: 004-03W, elevation: 9 m

Current weather observation

The report was made 21 minutes ago, at 13:20 UTC
Wind 6 kt from the Northeast
Temperature 15°C
Humidity 88%
Pressure 1024 hPa
Visibility: 6000 m
Few clouds at a height of 3500 ft
fog in vicinity

METAR: EGPE 241320Z 05006KT 9999 6000N VCFG FEW035 15/13 Q1024

Time: 14:41 (13:41 UTC)

Forecast

The report was made 2 hours and 38 minutes ago, at 11:03 UTC
Forecast valid from 24 at 12 UTC to 24 at 21 UTC
Wind 5 kt from the North/Northeast
Visibility 10 km or more
Few clouds at a height of 1000 ft

TAF: EGPE 241103Z 2412/2421 02005KT 9999 FEW010

Weather observations and forecasts of more than 4000 airports (METAR and TAF reports).

The available stations are represented by yellow and red dots on the map.

Hover mouse over dot to see the name of the station.

Then click to see weather observations and forecasts.

To change the map : click on the green buttons with a black cross to zoom in, on the green button with a dash to zoom out, or on the green arrows for adjacent maps.


METAR-TAF: